Time;durP1;ratioP1;P1;durP2;ratioP2;P2;SDS_P1;SDS_P2;PMS_P1;PMS_P2;Temp;Humidity;BMP_temperature;BMP_pressure;BME280_temperature;BME280_humidity;BME280_pressure;Samples;Min_cycle;Max_cycle;Signal;HPM_P1;HPM_P2
2023/05/17 00:01:20;;;;;;;5.35;0.70;;;;;;;;;;5285213;28;20139;-69
2023/05/17 00:03:53;;;;;;;5.82;1.00;;;;;;;;;;5284713;28;20345;-69
2023/05/17 00:06:24;;;;;;;6.90;1.00;;;;;;;;;;5284599;28;20025;-69
2023/05/17 00:08:55;;;;;;;4.50;0.80;;;;;;;;;;5284569;28;20017;-69
2023/05/17 00:11:26;;;;;;;8.43;1.25;;;;;;;;;;5284423;28;20556;-69
2023/05/17 00:13:57;;;;;;;6.13;1.23;;;;;;;;;;5284629;28;20376;-70
2023/05/17 00:16:28;;;;;;;4.78;0.60;;;;;;;;;;5285414;28;20070;-70
2023/05/17 00:19:00;;;;;;;5.68;1.17;;;;;;;;;;5284015;28;20286;-69
2023/05/17 00:21:31;;;;;;;6.60;0.90;;;;;;;;;;5284689;28;20032;-70
2023/05/17 00:24:02;;;;;;;9.57;1.20;;;;;;;;;;5284700;28;20267;-69
2023/05/17 00:26:33;;;;;;;6.53;1.00;;;;;;;;;;5283830;28;20051;-69
2023/05/17 00:29:04;;;;;;;5.55;0.73;;;;;;;;;;5284857;28;20009;-69
2023/05/17 00:31:36;;;;;;;5.97;1.10;;;;;;;;;;5284661;28;20016;-69
2023/05/17 00:34:07;;;;;;;5.95;0.95;;;;;;;;;;5283174;28;20025;-69
2023/05/17 00:36:38;;;;;;;4.56;0.70;;;;;;;;;;5284172;28;20016;-69
2023/05/17 00:39:09;;;;;;;7.72;1.16;;;;;;;;;;5284969;28;20032;-69
2023/05/17 00:41:40;;;;;;;6.50;0.82;;;;;;;;;;5283470;28;20043;-70
2023/05/17 00:44:12;;;;;;;5.03;1.05;;;;;;;;;;5284708;28;20058;-69
2023/05/17 00:46:43;;;;;;;7.07;1.27;;;;;;;;;;5283533;28;20032;-69
2023/05/17 00:49:14;;;;;;;4.97;0.73;;;;;;;;;;5284450;28;20028;-70
2023/05/17 00:51:45;;;;;;;6.45;0.90;;;;;;;;;;5284092;28;20017;-70
2023/05/17 00:54:17;;;;;;;4.20;0.73;;;;;;;;;;5283756;28;20104;-69
2023/05/17 00:56:48;;;;;;;4.90;1.05;;;;;;;;;;5283858;28;20582;-69
2023/05/17 00:59:20;;;;;;;5.38;1.02;;;;;;;;;;5284114;28;20123;-70
2023/05/17 01:01:51;;;;;;;6.13;1.13;;;;;;;;;;5283023;28;20554;-70
2023/05/17 01:04:23;;;;;;;6.05;0.88;;;;;;;;;;5284422;28;20047;-69
2023/05/17 01:06:54;;;;;;;5.63;1.17;;;;;;;;;;5283734;28;20024;-70
2023/05/17 01:09:26;;;;;;;6.72;1.10;;;;;;;;;;5283587;28;20016;-70
2023/05/17 01:12:06;;;;;;;4.38;0.88;;;;;;;;;;5283458;28;20097;-69
2023/05/17 01:14:53;;;;;;;6.88;0.80;;;;;;;;;;5283406;28;20050;-70
2023/05/17 01:17:45;;;;;;;8.00;1.08;;;;;;;;;;5283944;28;20027;-70
2023/05/17 01:20:23;;;;;;;5.43;0.80;;;;;;;;;;5283952;28;20016;-69
2023/05/17 01:23:09;;;;;;;6.13;1.17;;;;;;;;;;5282605;28;20094;-69
2023/05/17 01:25:41;;;;;;;4.25;0.85;;;;;;;;;;5283172;28;20023;-70
2023/05/17 01:28:12;;;;;;;7.18;0.98;;;;;;;;;;5283831;28;20025;-69
2023/05/17 01:30:46;;;;;;;6.90;1.30;;;;;;;;;;5282340;28;20573;-70
2023/05/17 01:33:18;;;;;;;7.65;0.98;;;;;;;;;;5283697;28;20027;-69
2023/05/17 01:35:49;;;;;;;6.57;1.15;;;;;;;;;;5282377;28;20460;-70
2023/05/17 01:38:20;;;;;;;4.00;0.93;;;;;;;;;;5283799;28;20036;-69
2023/05/17 01:41:08;;;;;;;6.05;0.80;;;;;;;;;;5282762;28;20056;-69
2023/05/17 01:43:39;;;;;;;5.70;1.13;;;;;;;;;;5281976;28;20368;-70
2023/05/17 01:46:16;;;;;;;7.22;1.10;;;;;;;;;;5283524;28;20039;-69
2023/05/17 01:49:08;;;;;;;4.90;0.80;;;;;;;;;;5282829;28;20266;-70
2023/05/17 01:51:44;;;;;;;6.05;1.48;;;;;;;;;;5281444;28;20028;-70
2023/05/17 01:54:19;;;;;;;6.82;0.88;;;;;;;;;;5283433;28;20023;-69
2023/05/17 01:56:56;;;;;;;4.28;1.08;;;;;;;;;;5282307;28;20062;-70
2023/05/17 01:59:28;;;;;;;8.90;1.73;;;;;;;;;;5282914;28;20048;-69
2023/05/17 02:02:05;;;;;;;8.07;0.90;;;;;;;;;;5282620;28;20055;-69
2023/05/17 02:04:36;;;;;;;6.18;0.93;;;;;;;;;;5281913;28;20016;-69
2023/05/17 02:07:07;;;;;;;6.70;1.27;;;;;;;;;;5282840;28;20468;-69
2023/05/17 02:09:38;;;;;;;6.07;1.08;;;;;;;;;;5282325;28;20028;-70
2023/05/17 02:12:09;;;;;;;8.15;1.55;;;;;;;;;;5282082;28;20032;-69
2023/05/17 02:14:40;;;;;;;7.04;1.22;;;;;;;;;;5282096;28;20031;-69
2023/05/17 02:17:12;;;;;;;6.72;1.17;;;;;;;;;;5283139;28;20020;-70
2023/05/17 02:19:43;;;;;;;10.63;1.67;;;;;;;;;;5281442;28;20255;-70
2023/05/17 02:22:14;;;;;;;5.80;1.42;;;;;;;;;;5282710;28;20036;-70
2023/05/17 02:24:46;;;;;;;9.02;1.50;;;;;;;;;;5282037;28;20021;-70
2023/05/17 02:27:17;;;;;;;5.38;1.30;;;;;;;;;;5281701;28;20025;-70
2023/05/17 02:29:48;;;;;;;7.65;1.90;;;;;;;;;;5282205;28;20028;-70
2023/05/17 02:32:19;;;;;;;8.93;1.40;;;;;;;;;;5281946;28;20712;-70
2023/05/17 02:34:50;;;;;;;8.25;1.80;;;;;;;;;;5281991;28;20308;-70
2023/05/17 02:37:21;;;;;;;5.97;1.80;;;;;;;;;;5282392;28;20024;-70
2023/05/17 02:39:53;;;;;;;6.45;1.70;;;;;;;;;;5280810;28;20017;-70
2023/05/17 02:42:24;;;;;;;7.13;1.50;;;;;;;;;;5282387;28;20521;-70
2023/05/17 02:44:56;;;;;;;6.43;1.27;;;;;;;;;;5281890;28;20262;-70
2023/05/17 02:47:28;;;;;;;9.40;1.20;;;;;;;;;;5281439;28;20012;-69
2023/05/17 02:49:59;;;;;;;5.97;2.00;;;;;;;;;;5281809;28;20008;-69
2023/05/17 02:52:30;;;;;;;4.65;1.45;;;;;;;;;;5281908;28;20052;-70
2023/05/17 02:55:01;;;;;;;5.05;1.65;;;;;;;;;;5281219;28;20324;-70
2023/05/17 02:57:32;;;;;;;6.00;1.70;;;;;;;;;;5281447;28;20051;-70
2023/05/17 03:00:04;;;;;;;7.63;1.65;;;;;;;;;;5281952;28;20044;-70
2023/05/17 03:02:36;;;;;;;6.72;1.73;;;;;;;;;;5280867;28;20773;-70
2023/05/17 03:05:07;;;;;;;7.65;1.92;;;;;;;;;;5281931;28;20040;-70
2023/05/17 03:07:38;;;;;;;8.15;2.33;;;;;;;;;;5280731;28;20092;-70
2023/05/17 03:10:09;;;;;;;7.92;1.80;;;;;;;;;;5282391;28;20099;-70
2023/05/17 03:12:40;;;;;;;11.77;2.42;;;;;;;;;;5281430;28;20025;-70
2023/05/17 03:15:12;;;;;;;5.95;1.73;;;;;;;;;;5281113;28;20016;-70
2023/05/17 03:17:43;;;;;;;7.80;2.30;;;;;;;;;;5281591;28;20024;-70
2023/05/17 03:20:14;;;;;;;7.35;1.75;;;;;;;;;;5281867;28;20020;-70
2023/05/17 03:22:46;;;;;;;5.97;1.85;;;;;;;;;;5280457;28;20384;-70
2023/05/17 03:25:17;;;;;;;10.18;2.17;;;;;;;;;;5281744;28;20021;-70
2023/05/17 03:27:48;;;;;;;9.95;2.50;;;;;;;;;;5281137;28;20391;-70
2023/05/17 03:30:19;;;;;;;6.28;1.98;;;;;;;;;;5281152;28;20051;-70
2023/05/17 03:32:51;;;;;;;7.07;2.00;;;;;;;;;;5281358;28;20013;-70
2023/05/17 03:35:22;;;;;;;9.43;1.65;;;;;;;;;;5281008;28;20101;-70
2023/05/17 03:37:53;;;;;;;6.35;1.77;;;;;;;;;;5281012;28;20028;-68
2023/05/17 03:40:25;;;;;;;7.75;2.55;;;;;;;;;;5281485;28;20021;-69
2023/05/17 03:42:56;;;;;;;9.20;2.13;;;;;;;;;;5280234;28;21042;-68
2023/05/17 03:45:27;;;;;;;12.00;2.70;;;;;;;;;;5281591;28;20104;-70
2023/05/17 03:47:58;;;;;;;7.85;2.25;;;;;;;;;;5280990;28;20031;-70
2023/05/17 03:50:31;;;;;;;9.70;2.35;;;;;;;;;;5280304;28;20408;-71
2023/05/17 03:53:02;;;;;;;7.30;2.50;;;;;;;;;;5281302;28;20023;-70
2023/05/17 03:55:33;;;;;;;7.45;1.95;;;;;;;;;;5281301;28;20013;-70
2023/05/17 03:58:05;;;;;;;9.12;2.64;;;;;;;;;;5280151;28;20045;-69
2023/05/17 04:00:36;;;;;;;8.07;2.38;;;;;;;;;;5281329;28;20160;-70
2023/05/17 04:03:07;;;;;;;7.75;2.28;;;;;;;;;;5281131;28;20028;-70
2023/05/17 04:05:40;;;;;;;8.13;2.28;;;;;;;;;;5280250;28;20155;-70
2023/05/17 04:08:11;;;;;;;8.57;2.50;;;;;;;;;;5281562;28;20038;-70
2023/05/17 04:10:42;;;;;;;6.32;2.15;;;;;;;;;;5283677;28;20100;-70
2023/05/17 04:13:13;;;;;;;5.85;2.28;;;;;;;;;;5285063;28;20375;-69
2023/05/17 04:15:44;;;;;;;8.98;2.50;;;;;;;;;;5284444;28;20033;-70
2023/05/17 04:18:16;;;;;;;10.77;2.40;;;;;;;;;;5284707;28;20020;-70
2023/05/17 04:20:47;;;;;;;9.88;3.20;;;;;;;;;;5284458;28;20028;-69
2023/05/17 04:23:18;;;;;;;9.63;2.70;;;;;;;;;;5285028;28;20028;-69
2023/05/17 04:25:49;;;;;;;10.27;2.70;;;;;;;;;;5283478;28;20015;-69
2023/05/17 04:28:21;;;;;;;8.13;2.80;;;;;;;;;;5284748;28;20098;-69
2023/05/17 04:30:52;;;;;;;8.82;2.78;;;;;;;;;;5284362;28;20031;-69
2023/05/17 04:33:23;;;;;;;6.00;2.83;;;;;;;;;;5284127;28;20023;-69
2023/05/17 04:35:55;;;;;;;10.18;2.63;;;;;;;;;;5284027;28;20108;-69
2023/05/17 04:38:26;;;;;;;7.50;2.60;;;;;;;;;;5284561;28;20438;-69
2023/05/17 04:41:04;;;;;;;11.75;3.47;;;;;;;;;;5283112;28;20111;-69
2023/05/17 04:43:35;;;;;;;9.48;3.03;;;;;;;;;;5284332;28;20099;-69
2023/05/17 04:46:07;;;;;;;10.43;2.83;;;;;;;;;;5283600;28;20162;-69
2023/05/17 04:48:38;;;;;;;16.05;3.80;;;;;;;;;;5283969;28;20023;-69
2023/05/17 04:51:09;;;;;;;11.20;3.55;;;;;;;;;;5284424;28;20024;-69
2023/05/17 04:53:41;;;;;;;8.00;2.78;;;;;;;;;;5282917;28;20059;-70
2023/05/17 04:56:12;;;;;;;7.94;3.58;;;;;;;;;;5284282;28;20382;-69
2023/05/17 04:58:43;;;;;;;11.80;3.30;;;;;;;;;;5283426;28;20372;-69
2023/05/17 05:01:14;;;;;;;9.65;3.35;;;;;;;;;;5283399;28;20370;-69
2023/05/17 05:03:45;;;;;;;11.10;2.95;;;;;;;;;;5283538;28;20024;-69
2023/05/17 05:06:16;;;;;;;10.16;3.58;;;;;;;;;;5284183;28;20084;-69
2023/05/17 05:08:48;;;;;;;8.68;3.30;;;;;;;;;;5282750;28;20017;-69
2023/05/17 05:11:19;;;;;;;10.57;2.90;;;;;;;;;;5284121;28;20017;-69
2023/05/17 05:13:50;;;;;;;13.07;3.28;;;;;;;;;;5282526;28;20061;-69
2023/05/17 05:16:22;;;;;;;7.55;3.28;;;;;;;;;;5284063;28;20266;-69
2023/05/17 05:18:53;;;;;;;7.60;3.50;;;;;;;;;;5283341;28;20383;-69
2023/05/17 05:21:25;;;;;;;7.45;2.95;;;;;;;;;;5282788;28;20021;-69
2023/05/17 05:23:56;;;;;;;4.57;2.45;;;;;;;;;;5283215;28;20267;-69
2023/05/17 05:26:27;;;;;;;9.10;2.97;;;;;;;;;;5283571;28;20345;-69
2023/05/17 05:28:58;;;;;;;9.30;3.00;;;;;;;;;;5282308;28;20023;-69
2023/05/17 05:31:29;;;;;;;8.00;2.83;;;;;;;;;;5283195;28;20099;-69
2023/05/17 05:34:01;;;;;;;11.52;3.67;;;;;;;;;;5283314;28;20421;-69
2023/05/17 05:36:33;;;;;;;10.38;2.92;;;;;;;;;;5282373;28;20077;-69
2023/05/17 05:39:04;;;;;;;7.60;2.72;;;;;;;;;;5283072;28;20020;-69
2023/05/17 05:41:35;;;;;;;9.95;2.92;;;;;;;;;;5282937;28;20480;-69
2023/05/17 05:44:06;;;;;;;11.55;3.25;;;;;;;;;;5282294;28;20435;-69
2023/05/17 05:46:37;;;;;;;9.45;3.35;;;;;;;;;;5282851;28;20021;-67
2023/05/17 05:49:09;;;;;;;8.43;2.60;;;;;;;;;;5282256;28;20067;-68
2023/05/17 05:51:40;;;;;;;12.80;3.60;;;;;;;;;;5282720;28;20119;-68
2023/05/17 05:54:12;;;;;;;14.40;3.45;;;;;;;;;;5283228;28;20016;-68
2023/05/17 05:56:43;;;;;;;6.68;2.75;;;;;;;;;;5281571;28;20266;-68
2023/05/17 05:59:14;;;;;;;8.00;2.63;;;;;;;;;;5282815;28;20064;-69
2023/05/17 06:01:45;;;;;;;11.93;2.58;;;;;;;;;;5282187;28;20302;-68
2023/05/17 06:04:16;;;;;;;13.70;3.30;;;;;;;;;;5282357;28;20324;-68
2023/05/17 06:06:47;;;;;;;10.10;2.75;;;;;;;;;;5282374;28;20020;-69
2023/05/17 06:09:19;;;;;;;10.50;2.60;;;;;;;;;;5282735;28;20013;-68
2023/05/17 06:11:51;;;;;;;12.23;2.70;;;;;;;;;;5281690;28;20569;-70
2023/05/17 06:14:22;;;;;;;7.07;2.22;;;;;;;;;;5282615;28;20095;-69
2023/05/17 06:16:53;;;;;;;13.90;2.80;;;;;;;;;;5282304;28;20103;-69
2023/05/17 06:19:24;;;;;;;12.82;2.35;;;;;;;;;;5281926;28;20013;-69
2023/05/17 06:21:56;;;;;;;12.23;2.08;;;;;;;;;;5281955;28;20828;-70
2023/05/17 06:24:27;;;;;;;13.83;2.13;;;;;;;;;;5281783;28;20341;-69
2023/05/17 06:26:58;;;;;;;12.05;2.15;;;;;;;;;;5281708;28;20258;-69
2023/05/17 06:29:29;;;;;;;10.85;1.83;;;;;;;;;;5282306;28;20023;-69
2023/05/17 06:32:00;;;;;;;9.90;2.20;;;;;;;;;;5280598;28;20288;-68
2023/05/17 06:34:32;;;;;;;14.10;2.63;;;;;;;;;;5282175;28;20032;-69
2023/05/17 06:37:03;;;;;;;9.85;1.60;;;;;;;;;;5281923;28;20081;-69
2023/05/17 06:39:34;;;;;;;8.75;1.27;;;;;;;;;;5281187;28;20356;-69
2023/05/17 06:42:05;;;;;;;9.20;1.15;;;;;;;;;;5282076;28;20085;-70
2023/05/17 06:44:37;;;;;;;9.98;1.60;;;;;;;;;;5282023;28;20051;-70
2023/05/17 06:47:08;;;;;;;11.00;1.67;;;;;;;;;;5281232;28;20028;-70
2023/05/17 06:49:39;;;;;;;9.98;1.67;;;;;;;;;;5281319;28;20027;-70
2023/05/17 06:52:10;;;;;;;7.03;1.25;;;;;;;;;;5282094;28;20024;-70
2023/05/17 06:54:41;;;;;;;9.52;0.90;;;;;;;;;;5280695;28;20472;-69
2023/05/17 06:57:13;;;;;;;12.02;1.63;;;;;;;;;;5282089;28;20021;-70
2023/05/17 06:59:44;;;;;;;10.88;1.35;;;;;;;;;;5280299;28;20049;-70
2023/05/17 07:02:15;;;;;;;9.48;1.27;;;;;;;;;;5281879;28;20028;-70
2023/05/17 07:04:46;;;;;;;5.97;1.45;;;;;;;;;;5281340;28;20021;-70
2023/05/17 07:07:17;;;;;;;9.70;1.25;;;;;;;;;;5280524;28;20750;-69
2023/05/17 07:09:49;;;;;;;7.00;0.93;;;;;;;;;;5281210;28;20119;-69
2023/05/17 07:12:20;;;;;;;10.00;1.25;;;;;;;;;;5281957;28;20024;-69
2023/05/17 07:14:51;;;;;;;9.43;0.90;;;;;;;;;;5280258;28;20025;-70
2023/05/17 07:17:22;;;;;;;7.97;1.13;;;;;;;;;;5282015;28;20044;-69
2023/05/17 07:19:53;;;;;;;7.78;1.05;;;;;;;;;;5281184;28;20254;-69
2023/05/17 07:22:25;;;;;;;10.48;0.82;;;;;;;;;;5280844;28;20074;-70
2023/05/17 07:24:56;;;;;;;7.63;0.95;;;;;;;;;;5281207;28;20497;-68
2023/05/17 07:27:27;;;;;;;9.85;0.90;;;;;;;;;;5280844;28;20028;-69
2023/05/17 07:29:59;;;;;;;6.18;0.60;;;;;;;;;;5281317;28;20154;-68
2023/05/17 07:32:30;;;;;;;7.90;0.70;;;;;;;;;;5281538;28;20062;-68
2023/05/17 07:35:02;;;;;;;6.20;1.05;;;;;;;;;;5280499;28;20024;-69
2023/05/17 07:37:33;;;;;;;7.40;1.00;;;;;;;;;;5281130;28;20150;-69
2023/05/17 07:40:05;;;;;;;6.28;1.13;;;;;;;;;;5281592;28;20112;-69
2023/05/17 07:42:36;;;;;;;6.57;0.90;;;;;;;;;;5281106;28;20025;-69
2023/05/17 07:45:07;;;;;;;5.40;0.90;;;;;;;;;;5285408;28;20016;-69
2023/05/17 07:47:38;;;;;;;8.15;1.05;;;;;;;;;;5284993;28;20277;-70
2023/05/17 07:50:10;;;;;;;5.95;0.80;;;;;;;;;;5284852;28;20487;-70
2023/05/17 07:52:41;;;;;;;9.00;1.60;;;;;;;;;;5284988;28;20063;-70
2023/05/17 07:55:12;;;;;;;7.93;1.27;;;;;;;;;;5285615;28;20024;-70
2023/05/17 07:57:43;;;;;;;7.75;0.70;;;;;;;;;;5283659;28;20386;-70
2023/05/17 08:00:18;;;;;;;9.30;1.00;;;;;;;;;;5285457;28;20087;-70
2023/05/17 08:02:49;;;;;;;5.10;0.77;;;;;;;;;;5283774;28;20424;-70
2023/05/17 08:05:20;;;;;;;6.47;0.70;;;;;;;;;;5284855;28;20091;-69
2023/05/17 08:07:52;;;;;;;6.45;0.65;;;;;;;;;;5284524;28;20282;-69
2023/05/17 08:10:23;;;;;;;6.97;0.88;;;;;;;;;;5284495;28;20012;-70
2023/05/17 08:12:54;;;;;;;9.50;1.00;;;;;;;;;;5284515;28;20024;-70
2023/05/17 08:15:25;;;;;;;6.20;0.77;;;;;;;;;;5285237;28;20265;-71
2023/05/17 08:17:56;;;;;;;8.80;0.93;;;;;;;;;;5283658;28;20033;-69
2023/05/17 08:20:28;;;;;;;4.93;0.60;;;;;;;;;;5285206;28;20020;-70
2023/05/17 08:22:59;;;;;;;9.83;0.80;;;;;;;;;;5284103;28;20320;-69
2023/05/17 08:25:30;;;;;;;12.00;1.03;;;;;;;;;;5283271;28;20259;-71
2023/05/17 08:28:01;;;;;;;5.65;0.70;;;;;;;;;;5284361;28;20781;-70
2023/05/17 08:30:32;;;;;;;6.55;0.90;;;;;;;;;;5284535;28;20047;-70
2023/05/17 08:33:04;;;;;;;7.03;0.63;;;;;;;;;;5283627;28;20021;-70
2023/05/17 08:35:35;;;;;;;5.40;0.57;;;;;;;;;;5284521;28;20043;-70
2023/05/17 08:38:07;;;;;;;7.25;0.70;;;;;;;;;;5283651;28;20455;-70
2023/05/17 08:40:38;;;;;;;8.73;0.73;;;;;;;;;;5283268;28;20020;-71
2023/05/17 08:43:10;;;;;;;4.43;0.50;;;;;;;;;;5282681;28;20040;-70
2023/05/17 08:45:42;;;;;;;3.05;0.55;;;;;;;;;;5281317;28;20035;-70
2023/05/17 08:48:13;;;;;;;4.07;0.50;;;;;;;;;;5282719;28;20534;-70
2023/05/17 08:50:45;;;;;;;5.88;0.50;;;;;;;;;;5281870;28;20020;-70
2023/05/17 08:53:16;;;;;;;5.45;0.47;;;;;;;;;;5281804;28;20017;-71
2023/05/17 08:55:49;;;;;;;5.28;0.60;;;;;;;;;;5281677;28;20448;-71
2023/05/17 08:58:21;;;;;;;4.40;0.60;;;;;;;;;;5284200;28;20072;-72
2023/05/17 09:00:53;;;;;;;4.45;0.63;;;;;;;;;;5282546;28;20095;-71
2023/05/17 09:03:25;;;;;;;6.65;0.70;;;;;;;;;;5284096;28;20052;-71
2023/05/17 09:05:57;;;;;;;4.70;0.50;;;;;;;;;;5282938;28;20031;-71
2023/05/17 09:08:29;;;;;;;4.20;0.82;;;;;;;;;;5284265;28;20099;-71
2023/05/17 09:11:00;;;;;;;3.22;0.82;;;;;;;;;;5283541;28;20100;-71
2023/05/17 09:13:31;;;;;;;7.13;0.63;;;;;;;;;;5282375;28;20024;-71
2023/05/17 09:16:11;;;;;;;6.70;0.87;;;;;;;;;;5281861;28;20258;-70
2023/05/17 09:18:51;;;;;;;5.45;0.93;;;;;;;;;;5281011;28;20349;-70
2023/05/17 09:21:23;;;;;;;3.75;0.50;;;;;;;;;;5280808;28;20511;-72
2023/05/17 09:23:54;;;;;;;4.82;0.60;;;;;;;;;;5281032;28;20379;-70
2023/05/17 09:26:42;;;;;;;4.45;0.52;;;;;;;;;;5281701;28;20009;-71
2023/05/17 09:29:14;;;;;;;8.45;1.00;;;;;;;;;;5280884;28;20047;-71
2023/05/17 09:31:45;;;;;;;5.63;0.50;;;;;;;;;;5281910;28;20425;-71
2023/05/17 09:34:17;;;;;;;6.90;0.80;;;;;;;;;;5281730;28;20103;-71
2023/05/17 09:36:50;;;;;;;5.30;0.70;;;;;;;;;;5281888;28;20262;-70
2023/05/17 09:39:24;;;;;;;3.90;0.50;;;;;;;;;;5282591;28;20079;-71
2023/05/17 09:41:55;;;;;;;5.10;0.70;;;;;;;;;;5280991;28;20088;-69
2023/05/17 09:44:26;;;;;;;4.10;0.70;;;;;;;;;;5282254;28;20105;-70
2023/05/17 09:46:58;;;;;;;3.63;0.60;;;;;;;;;;5282443;28;20028;-69
2023/05/17 09:49:29;;;;;;;3.35;0.50;;;;;;;;;;5282399;28;20638;-70
2023/05/17 09:52:06;;;;;;;5.77;0.80;;;;;;;;;;5282971;28;20016;-68
2023/05/17 09:54:40;;;;;;;6.20;0.73;;;;;;;;;;5282589;28;20082;-69
2023/05/17 09:57:11;;;;;;;4.82;0.65;;;;;;;;;;5280818;28;20020;-69
2023/05/17 09:59:42;;;;;;;4.65;0.50;;;;;;;;;;5280206;28;20047;-69
2023/05/17 10:02:21;;;;;;;3.67;0.50;;;;;;;;;;5281853;28;20074;-69
2023/05/17 10:04:54;;;;;;;8.07;0.75;;;;;;;;;;5282424;28;20463;-69
2023/05/17 10:07:26;;;;;;;4.32;0.60;;;;;;;;;;5282800;28;20486;-70
2023/05/17 10:09:58;;;;;;;3.67;0.57;;;;;;;;;;5281428;28;20040;-70
2023/05/17 10:12:32;;;;;;;5.90;0.90;;;;;;;;;;5281508;28;20109;-69
2023/05/17 10:15:04;;;;;;;6.00;0.70;;;;;;;;;;5280279;28;20017;-70
2023/05/17 10:17:36;;;;;;;6.18;0.80;;;;;;;;;;5278202;28;20031;-70
2023/05/17 10:20:07;;;;;;;3.80;0.50;;;;;;;;;;5278065;28;20021;-69
2023/05/17 10:22:39;;;;;;;5.07;0.70;;;;;;;;;;5277790;28;20036;-70
2023/05/17 10:25:10;;;;;;;4.35;0.60;;;;;;;;;;5279473;28;20488;-69
2023/05/17 10:27:42;;;;;;;5.25;0.80;;;;;;;;;;5280468;28;20099;-69
2023/05/17 10:30:14;;;;;;;7.53;0.93;;;;;;;;;;5282559;28;20083;-69
2023/05/17 10:32:46;;;;;;;4.65;0.80;;;;;;;;;;5281108;28;20052;-69
2023/05/17 10:35:17;;;;;;;4.95;0.52;;;;;;;;;;5282604;28;20467;-69
2023/05/17 10:37:48;;;;;;;7.18;0.73;;;;;;;;;;5281055;28;20139;-70
2023/05/17 10:40:20;;;;;;;4.20;0.60;;;;;;;;;;5282049;28;20028;-68
2023/05/17 10:42:53;;;;;;;5.25;0.80;;;;;;;;;;5281519;28;20081;-68
2023/05/17 10:45:25;;;;;;;6.30;0.70;;;;;;;;;;5281643;28;20013;-69
2023/05/17 10:47:59;;;;;;;4.05;0.50;;;;;;;;;;5281646;28;20020;-69
2023/05/17 10:50:31;;;;;;;4.75;0.60;;;;;;;;;;5282014;28;20478;-70
2023/05/17 10:53:06;;;;;;;4.75;0.63;;;;;;;;;;5281164;28;20098;-70
2023/05/17 10:55:41;;;;;;;3.70;0.63;;;;;;;;;;5281567;28;20050;-70
2023/05/17 10:58:16;;;;;;;5.78;0.55;;;;;;;;;;5281931;28;20052;-71
2023/05/17 11:00:49;;;;;;;5.78;0.70;;;;;;;;;;5280696;28;20108;-71
2023/05/17 11:03:29;;;;;;;4.05;0.40;;;;;;;;;;5281971;28;20048;-70
2023/05/17 11:06:06;;;;;;;4.40;0.40;;;;;;;;;;5280205;28;20442;-71
2023/05/17 11:08:44;;;;;;;3.75;0.50;;;;;;;;;;5280926;28;20103;-71
2023/05/17 11:11:17;;;;;;;3.53;0.40;;;;;;;;;;5282153;28;20029;-70
2023/05/17 11:13:53;;;;;;;4.55;0.60;;;;;;;;;;5280609;28;20040;-70
2023/05/17 11:16:26;;;;;;;4.97;0.40;;;;;;;;;;5281372;28;20425;-70
2023/05/17 11:19:05;;;;;;;4.88;0.50;;;;;;;;;;5285031;28;20044;-70
2023/05/17 11:21:46;;;;;;;5.72;0.60;;;;;;;;;;5285718;28;20020;-70
2023/05/17 11:24:27;;;;;;;4.32;0.38;;;;;;;;;;5287072;28;20036;-70
2023/05/17 11:26:59;;;;;;;5.53;1.13;;;;;;;;;;5285740;28;20070;-69
2023/05/17 11:29:31;;;;;;;9.15;0.55;;;;;;;;;;5286963;28;20519;-70
2023/05/17 11:32:04;;;;;;;4.53;0.50;;;;;;;;;;5287214;28;20108;-70
2023/05/17 11:34:36;;;;;;;4.22;0.50;;;;;;;;;;5287708;28;20021;-70
2023/05/17 11:37:10;;;;;;;7.85;0.57;;;;;;;;;;5288209;28;20043;-70
2023/05/17 11:39:59;;;;;;;4.38;0.60;;;;;;;;;;5287994;28;20029;-70
2023/05/17 11:42:31;;;;;;;4.70;0.50;;;;;;;;;;5287703;28;20079;-70
2023/05/17 11:45:03;;;;;;;5.82;0.40;;;;;;;;;;5288284;28;20013;-70
2023/05/17 11:47:37;;;;;;;4.47;0.60;;;;;;;;;;5288049;28;20024;-70
2023/05/17 11:50:09;;;;;;;6.22;0.70;;;;;;;;;;5288259;28;20012;-69
2023/05/17 11:52:41;;;;;;;3.28;0.52;;;;;;;;;;5287856;28;20028;-70
2023/05/17 11:55:14;;;;;;;3.10;0.47;;;;;;;;;;5287719;28;20067;-70
2023/05/17 11:57:45;;;;;;;5.30;0.50;;;;;;;;;;5287650;28;20517;-70
2023/05/17 12:00:25;;;;;;;4.63;0.50;;;;;;;;;;5288480;28;20048;-69
2023/05/17 12:02:57;;;;;;;4.47;0.50;;;;;;;;;;5287188;28;21064;-69
2023/05/17 12:05:28;;;;;;;9.13;0.85;;;;;;;;;;5288450;28;20028;-70
2023/05/17 12:08:00;;;;;;;8.07;2.10;;;;;;;;;;5287916;28;20107;-70
2023/05/17 12:10:32;;;;;;;7.93;0.60;;;;;;;;;;5287183;28;20463;-70
2023/05/17 12:13:03;;;;;;;2.30;0.38;;;;;;;;;;5288044;28;20078;-70
2023/05/17 12:15:35;;;;;;;3.88;0.63;;;;;;;;;;5287951;28;20028;-70
2023/05/17 12:18:06;;;;;;;2.55;0.32;;;;;;;;;;5287190;28;20378;-69
2023/05/17 12:20:38;;;;;;;4.32;0.50;;;;;;;;;;5287562;28;20455;-70
2023/05/17 12:23:09;;;;;;;2.60;0.30;;;;;;;;;;5287382;28;20036;-70
2023/05/17 12:25:40;;;;;;;2.95;0.40;;;;;;;;;;5287496;28;20027;-70
2023/05/17 12:28:13;;;;;;;3.77;0.43;;;;;;;;;;5288405;28;20440;-69
2023/05/17 12:30:44;;;;;;;6.32;0.40;;;;;;;;;;5282267;28;20298;-70
2023/05/17 12:33:15;;;;;;;3.70;0.40;;;;;;;;;;5284782;28;20474;-69
2023/05/17 12:35:47;;;;;;;3.20;0.55;;;;;;;;;;5284219;28;20020;-70
2023/05/17 12:38:18;;;;;;;3.70;0.40;;;;;;;;;;5284000;28;20023;-70
2023/05/17 12:40:49;;;;;;;5.43;0.40;;;;;;;;;;5284077;28;20039;-69
2023/05/17 12:43:23;;;;;;;5.32;0.68;;;;;;;;;;5284640;28;20111;-69
2023/05/17 12:45:55;;;;;;;3.75;0.47;;;;;;;;;;5282878;28;20017;-69
2023/05/17 12:48:26;;;;;;;5.85;0.40;;;;;;;;;;5284593;28;20089;-69
2023/05/17 12:51:04;;;;;;;5.07;0.57;;;;;;;;;;5283304;28;20021;-69
2023/05/17 12:53:38;;;;;;;4.37;0.40;;;;;;;;;;5284013;28;20032;-69
2023/05/17 12:56:35;;;;;;;3.78;0.50;;;;;;;;;;5284468;28;20427;-69
2023/05/17 12:59:10;;;;;;;3.92;0.30;;;;;;;;;;5280720;28;20123;-70
2023/05/17 13:01:42;;;;;;;4.90;0.50;;;;;;;;;;5283543;28;20021;-70
2023/05/17 13:04:14;;;;;;;4.40;0.40;;;;;;;;;;5284278;28;20024;-70
2023/05/17 13:06:47;;;;;;;3.78;0.50;;;;;;;;;;5282675;28;20379;-69
2023/05/17 13:09:20;;;;;;;3.63;0.57;;;;;;;;;;5284257;28;20500;-69
2023/05/17 13:11:51;;;;;;;4.32;0.50;;;;;;;;;;5283699;28;20048;-70
2023/05/17 13:14:36;;;;;;;3.15;0.63;;;;;;;;;;5283369;28;20460;-70
2023/05/17 13:17:08;;;;;;;4.00;0.40;;;;;;;;;;5283546;28;20478;-70
2023/05/17 13:19:39;;;;;;;4.03;0.40;;;;;;;;;;5282506;28;20107;-70
2023/05/17 13:22:10;;;;;;;5.05;0.50;;;;;;;;;;5264165;28;20371;-70
2023/05/17 13:24:42;;;;;;;4.93;0.40;;;;;;;;;;5279979;28;20095;-69
2023/05/17 13:27:14;;;;;;;6.75;0.60;;;;;;;;;;5273459;28;20035;-70
2023/05/17 13:29:45;;;;;;;4.03;0.40;;;;;;;;;;5281573;28;20016;-70
2023/05/17 13:32:17;;;;;;;2.53;0.40;;;;;;;;;;5283394;28;20024;-70
2023/05/17 13:34:49;;;;;;;2.15;0.43;;;;;;;;;;5282067;28;20935;-69
2023/05/17 13:37:21;;;;;;;2.47;0.50;;;;;;;;;;5283148;28;20025;-70
2023/05/17 13:39:54;;;;;;;3.35;0.40;;;;;;;;;;5282846;28;20366;-70
2023/05/17 13:42:25;;;;;;;4.60;0.40;;;;;;;;;;5282147;28;20349;-70
2023/05/17 13:44:56;;;;;;;3.10;0.52;;;;;;;;;;5273550;28;20362;-71
2023/05/17 13:47:31;;;;;;;6.32;0.50;;;;;;;;;;5282134;28;20108;-70
2023/05/17 13:50:02;;;;;;;3.33;0.40;;;;;;;;;;5278882;28;20529;-70
2023/05/17 13:52:33;;;;;;;3.75;0.60;;;;;;;;;;5261447;28;20025;-70
2023/05/17 13:55:05;;;;;;;3.77;0.70;;;;;;;;;;5260930;28;20104;-70
2023/05/17 13:57:36;;;;;;;2.72;0.40;;;;;;;;;;5260676;28;20275;-72
2023/05/17 14:00:08;;;;;;;3.93;0.50;;;;;;;;;;5261367;28;20024;-71
2023/05/17 14:02:39;;;;;;;1.95;0.40;;;;;;;;;;5260043;28;20856;-71
2023/05/17 14:05:10;;;;;;;2.97;0.60;;;;;;;;;;5261696;28;20047;-70
2023/05/17 14:07:42;;;;;;;2.72;0.35;;;;;;;;;;5261111;28;20271;-70
2023/05/17 14:10:13;;;;;;;4.97;0.47;;;;;;;;;;5260888;28;20017;-70
2023/05/17 14:12:45;;;;;;;2.85;0.40;;;;;;;;;;5260167;28;20116;-71
2023/05/17 14:15:16;;;;;;;2.80;0.57;;;;;;;;;;5261637;28;20017;-70
2023/05/17 14:17:48;;;;;;;5.75;0.80;;;;;;;;;;5260179;28;20070;-70
2023/05/17 14:20:19;;;;;;;3.17;0.50;;;;;;;;;;5261583;28;20268;-71
2023/05/17 14:22:50;;;;;;;4.07;0.40;;;;;;;;;;5259823;28;20075;-70
2023/05/17 14:25:22;;;;;;;5.70;0.60;;;;;;;;;;5261693;28;20032;-70
2023/05/17 14:27:53;;;;;;;3.25;0.50;;;;;;;;;;5260837;28;20021;-70
2023/05/17 14:30:24;;;;;;;3.25;0.50;;;;;;;;;;5259509;28;20025;-70
2023/05/17 14:32:57;;;;;;;5.43;0.43;;;;;;;;;;5259516;28;20464;-70
2023/05/17 14:35:29;;;;;;;5.85;0.50;;;;;;;;;;5261649;28;20013;-70
2023/05/17 14:38:00;;;;;;;4.63;0.60;;;;;;;;;;5260505;28;20112;-70
2023/05/17 14:40:31;;;;;;;7.97;0.80;;;;;;;;;;5261264;28;20100;-70
2023/05/17 14:43:03;;;;;;;8.45;0.70;;;;;;;;;;5261110;28;20299;-71
2023/05/17 14:45:34;;;;;;;6.15;0.63;;;;;;;;;;5260539;28;20295;-70
2023/05/17 14:48:05;;;;;;;4.88;0.60;;;;;;;;;;5261005;28;20082;-70
2023/05/17 14:50:36;;;;;;;5.20;0.60;;;;;;;;;;5260250;28;20017;-70
2023/05/17 14:53:07;;;;;;;3.97;0.60;;;;;;;;;;5260040;28;20025;-70
2023/05/17 14:55:39;;;;;;;6.93;0.73;;;;;;;;;;5260701;28;20263;-70
2023/05/17 14:58:12;;;;;;;3.70;0.50;;;;;;;;;;5260266;28;20291;-69
2023/05/17 15:00:46;;;;;;;4.38;0.57;;;;;;;;;;5260349;28;20424;-69
2023/05/17 15:03:17;;;;;;;3.47;0.50;;;;;;;;;;5260803;28;20033;-69
2023/05/17 15:05:55;;;;;;;3.97;0.50;;;;;;;;;;5259482;28;20020;-69
2023/05/17 15:08:26;;;;;;;5.18;0.65;;;;;;;;;;5260946;28;20591;-70
2023/05/17 15:10:57;;;;;;;3.13;0.50;;;;;;;;;;5260529;28;20116;-70